sensor_id;sensor_type;location;lat;lon;timestamp;pressure;altitude;pressure_sealevel;temperature;humidity
47054;BME280;32811;52.382;5.270;2023-04-07T00:02:04;101543.69;;;7.17;100.00
47054;BME280;32811;52.382;5.270;2023-04-07T00:04:30;101540.16;;;7.14;100.00
47054;BME280;32811;52.382;5.270;2023-04-07T00:06:57;101547.97;;;7.18;100.00
47054;BME280;32811;52.382;5.270;2023-04-07T00:09:24;101539.41;;;7.18;100.00
47054;BME280;32811;52.382;5.270;2023-04-07T00:11:51;101544.63;;;7.21;100.00
47054;BME280;32811;52.382;5.270;2023-04-07T00:14:17;101545.47;;;7.20;100.00
47054;BME280;32811;52.382;5.270;2023-04-07T00:16:44;101543.78;;;7.20;100.00
47054;BME280;32811;52.382;5.270;2023-04-07T00:19:11;101534.22;;;7.16;100.00
47054;BME280;32811;52.382;5.270;2023-04-07T00:21:37;101548.13;;;7.23;100.00
47054;BME280;32811;52.382;5.270;2023-04-07T00:24:04;101545.53;;;7.21;100.00
47054;BME280;32811;52.382;5.270;2023-04-07T00:26:30;101546.28;;;7.19;100.00
47054;BME280;32811;52.382;5.270;2023-04-07T00:28:58;101548.91;;;7.20;100.00
47054;BME280;32811;52.382;5.270;2023-04-07T00:31:25;101547.97;;;7.17;100.00
47054;BME280;32811;52.382;5.270;2023-04-07T00:33:52;101547.06;;;7.16;100.00
47054;BME280;32811;52.382;5.270;2023-04-07T00:36:19;101545.59;;;7.24;100.00
47054;BME280;32811;52.382;5.270;2023-04-07T00:38:46;101556.66;;;7.22;100.00
47054;BME280;32811;52.382;5.270;2023-04-07T00:41:12;101551.53;;;7.22;100.00
47054;BME280;32811;52.382;5.270;2023-04-07T00:43:39;101543.81;;;7.22;100.00
47054;BME280;32811;52.382;5.270;2023-04-07T00:46:06;101547.97;;;7.18;100.00
47054;BME280;32811;52.382;5.270;2023-04-07T00:48:33;101553.97;;;7.19;100.00
47054;BME280;32811;52.382;5.270;2023-04-07T00:50:59;101550.56;;;7.18;100.00
47054;BME280;32811;52.382;5.270;2023-04-07T00:53:26;101552.19;;;7.16;100.00
47054;BME280;32811;52.382;5.270;2023-04-07T00:55:53;101559.09;;;7.17;100.00
47054;BME280;32811;52.382;5.270;2023-04-07T00:58:19;101560.88;;;7.20;100.00
47054;BME280;32811;52.382;5.270;2023-04-07T01:01:23;101555.94;;;7.26;100.00
47054;BME280;32811;52.382;5.270;2023-04-07T01:04:12;101556.72;;;7.23;100.00
47054;BME280;32811;52.382;5.270;2023-04-07T01:06:47;101558.50;;;7.26;100.00
47054;BME280;32811;52.382;5.270;2023-04-07T01:09:19;101564.31;;;7.20;100.00
47054;BME280;32811;52.382;5.270;2023-04-07T01:14:19;101565.22;;;7.22;100.00
47054;BME280;32811;52.382;5.270;2023-04-07T01:16:50;101560.09;;;7.22;100.00
47054;BME280;32811;52.382;5.270;2023-04-07T01:19:38;101557.47;;;7.21;100.00
47054;BME280;32811;52.382;5.270;2023-04-07T01:22:15;101560.16;;;7.24;100.00
47054;BME280;32811;52.382;5.270;2023-04-07T01:28:10;101559.22;;;7.22;100.00
47054;BME280;32811;52.382;5.270;2023-04-07T01:30:39;101557.38;;;7.18;100.00
47054;BME280;32811;52.382;5.270;2023-04-07T01:33:09;101559.16;;;7.20;100.00
47054;BME280;32811;52.382;5.270;2023-04-07T01:35:38;101553.19;;;7.20;100.00
47054;BME280;32811;52.382;5.270;2023-04-07T01:38:05;101560.94;;;7.23;100.00
47054;BME280;32811;52.382;5.270;2023-04-07T01:40:34;101557.53;;;7.22;100.00
47054;BME280;32811;52.382;5.270;2023-04-07T01:43:01;101553.13;;;7.18;100.00
47054;BME280;32811;52.382;5.270;2023-04-07T01:45:29;101553.22;;;7.21;100.00
47054;BME280;32811;52.382;5.270;2023-04-07T01:47:56;101555.88;;;7.24;100.00
47054;BME280;32811;52.382;5.270;2023-04-07T01:50:25;101556.84;;;7.28;100.00
47054;BME280;32811;52.382;5.270;2023-04-07T01:52:52;101549.88;;;7.24;100.00
47054;BME280;32811;52.382;5.270;2023-04-07T01:55:20;101556.72;;;7.23;100.00
47054;BME280;32811;52.382;5.270;2023-04-07T01:57:47;101555.78;;;7.21;100.00
47054;BME280;32811;52.382;5.270;2023-04-07T02:00:14;101526.31;;;7.09;100.00
47054;BME280;32811;52.382;5.270;2023-04-07T02:02:43;101549.69;;;7.18;100.00
47054;BME280;32811;52.382;5.270;2023-04-07T02:05:12;101533.31;;;7.14;100.00
47054;BME280;32811;52.382;5.270;2023-04-07T02:07:51;101556.84;;;7.28;100.00
47054;BME280;32811;52.382;5.270;2023-04-07T02:10:22;101527.22;;;7.11;100.00
47054;BME280;32811;52.382;5.270;2023-04-07T02:12:50;101542.00;;;7.18;100.00
47054;BME280;32811;52.382;5.270;2023-04-07T02:15:18;101562.94;;;7.32;100.00
47054;BME280;32811;52.382;5.270;2023-04-07T02:17:51;101562.13;;;7.34;100.00
47054;BME280;32811;52.382;5.270;2023-04-07T02:20:19;101562.13;;;7.33;100.00
47054;BME280;32811;52.382;5.270;2023-04-07T02:22:47;101560.34;;;7.30;100.00
47054;BME280;32811;52.382;5.270;2023-04-07T02:27:49;101519.53;;;7.11;100.00
47054;BME280;32811;52.382;5.270;2023-04-07T02:30:17;101556.84;;;7.28;100.00
47054;BME280;32811;52.382;5.270;2023-04-07T02:32:43;101547.34;;;7.25;100.00
47054;BME280;32811;52.382;5.270;2023-04-07T02:35:11;101517.50;;;7.00;100.00
47054;BME280;32811;52.382;5.270;2023-04-07T02:37:38;101534.97;;;7.12;100.00
47054;BME280;32811;52.382;5.270;2023-04-07T02:40:05;101547.34;;;7.25;100.00
47054;BME280;32811;52.382;5.270;2023-04-07T02:42:32;101527.97;;;7.06;100.00
47054;BME280;32811;52.382;5.270;2023-04-07T02:44:59;101520.94;;;7.01;100.00
47054;BME280;32811;52.382;5.270;2023-04-07T02:47:26;101544.56;;;7.18;100.00
47054;BME280;32811;52.382;5.270;2023-04-07T02:49:53;101539.16;;;7.09;100.00
47054;BME280;32811;52.382;5.270;2023-04-07T02:52:19;101538.38;;;7.11;100.00
47054;BME280;32811;52.382;5.270;2023-04-07T02:54:46;101534.06;;;7.10;100.00
47054;BME280;32811;52.382;5.270;2023-04-07T02:57:12;101532.38;;;7.11;100.00
47054;BME280;32811;52.382;5.270;2023-04-07T02:59:39;101561.94;;;7.26;100.00
47054;BME280;32811;52.382;5.270;2023-04-07T03:02:06;101561.94;;;7.26;100.00
47054;BME280;32811;52.382;5.270;2023-04-07T03:04:33;101565.31;;;7.25;100.00
47054;BME280;32811;52.382;5.270;2023-04-07T03:07:00;101563.56;;;7.24;100.00
47054;BME280;32811;52.382;5.270;2023-04-07T03:09:27;101540.09;;;7.12;100.00
47054;BME280;32811;52.382;5.270;2023-04-07T03:11:53;101561.84;;;7.23;100.00
47054;BME280;32811;52.382;5.270;2023-04-07T03:14:20;101547.97;;;7.18;100.00
47054;BME280;32811;52.382;5.270;2023-04-07T03:16:47;101554.34;;;7.31;100.00
47054;BME280;32811;52.382;5.270;2023-04-07T03:19:13;101558.44;;;7.24;100.00
47054;BME280;32811;52.382;5.270;2023-04-07T03:21:41;101548.84;;;7.19;100.00
47054;BME280;32811;52.382;5.270;2023-04-07T03:24:08;101514.84;;;6.97;100.00
47054;BME280;32811;52.382;5.270;2023-04-07T03:26:34;101545.34;;;7.15;100.00
47054;BME280;32811;52.382;5.270;2023-04-07T03:29:01;101521.97;;;7.06;100.00
47054;BME280;32811;52.382;5.270;2023-04-07T03:31:29;101561.75;;;7.20;100.00
47054;BME280;32811;52.382;5.270;2023-04-07T03:33:56;101534.81;;;7.06;100.00
47054;BME280;32811;52.382;5.270;2023-04-07T03:36:22;101525.34;;;7.05;100.00
47054;BME280;32811;52.382;5.270;2023-04-07T03:38:50;101568.66;;;7.23;100.00
47054;BME280;32811;52.382;5.270;2023-04-07T03:41:16;101556.53;;;7.17;100.00
47054;BME280;32811;52.382;5.270;2023-04-07T03:43:43;101542.63;;;7.11;100.00
47054;BME280;32811;52.382;5.270;2023-04-07T03:46:09;101560.16;;;7.25;100.00
47054;BME280;32811;52.382;5.270;2023-04-07T03:48:36;101545.22;;;7.12;100.00
47054;BME280;32811;52.382;5.270;2023-04-07T03:51:03;101540.16;;;7.14;100.00
47054;BME280;32811;52.382;5.270;2023-04-07T03:53:30;101560.78;;;7.17;100.00
47054;BME280;32811;52.382;5.270;2023-04-07T03:55:56;101540.59;;;7.00;100.00
47054;BME280;32811;52.382;5.270;2023-04-07T03:58:23;101571.94;;;7.19;100.00
47054;BME280;32811;52.382;5.270;2023-04-07T04:00:50;101537.03;;;6.95;100.00
47054;BME280;32811;52.382;5.270;2023-04-07T04:03:16;101572.59;;;7.12;100.00
47054;BME280;32811;52.382;5.270;2023-04-07T04:05:43;101546.53;;;6.98;100.00
47054;BME280;32811;52.382;5.270;2023-04-07T04:08:10;101567.47;;;7.12;100.00
47054;BME280;32811;52.382;5.270;2023-04-07T04:10:36;101570.94;;;7.14;100.00
47054;BME280;32811;52.382;5.270;2023-04-07T04:13:03;101548.16;;;6.96;100.00
47054;BME280;32811;52.382;5.270;2023-04-07T04:15:32;101570.88;;;7.11;100.00
47054;BME280;32811;52.382;5.270;2023-04-07T04:17:59;101570.75;;;7.06;100.00
47054;BME280;32811;52.382;5.270;2023-04-07T04:20:25;101577.94;;;7.18;100.00
47054;BME280;32811;52.382;5.270;2023-04-07T04:22:52;101570.88;;;7.11;100.00
47054;BME280;32811;52.382;5.270;2023-04-07T04:25:19;101565.59;;;7.06;100.00
47054;BME280;32811;52.382;5.270;2023-04-07T04:27:46;101554.94;;;6.94;100.00
47054;BME280;32811;52.382;5.270;2023-04-07T04:30:12;101578.38;;;7.04;100.00
47054;BME280;32811;52.382;5.270;2023-04-07T04:32:39;101558.28;;;6.91;100.00
47054;BME280;32811;52.382;5.270;2023-04-07T04:35:06;101599.13;;;7.11;100.00
47054;BME280;32811;52.382;5.270;2023-04-07T04:37:33;101585.09;;;7.01;100.00
47054;BME280;32811;52.382;5.270;2023-04-07T04:40:00;101590.41;;;7.05;100.00
47054;BME280;32811;52.382;5.270;2023-04-07T04:42:27;101580.94;;;7.04;100.00
47054;BME280;32811;52.382;5.270;2023-04-07T04:44:54;101564.25;;;6.90;100.00
47054;BME280;32811;52.382;5.270;2023-04-07T04:47:20;101567.56;;;6.88;100.00
47054;BME280;32811;52.382;5.270;2023-04-07T04:49:47;101597.28;;;7.06;100.00
47054;BME280;32811;52.382;5.270;2023-04-07T04:52:14;101600.69;;;7.07;100.00
47054;BME280;32811;52.382;5.270;2023-04-07T04:54:40;101604.03;;;7.04;100.00
47054;BME280;32811;52.382;5.270;2023-04-07T04:57:07;101595.38;;;7.01;100.00
47054;BME280;32811;52.382;5.270;2023-04-07T04:59:34;101565.66;;;6.80;100.00
47054;BME280;32811;52.382;5.270;2023-04-07T05:02:00;101596.13;;;6.97;100.00
47054;BME280;32811;52.382;5.270;2023-04-07T05:04:27;101604.88;;;7.03;100.00
47054;BME280;32811;52.382;5.270;2023-04-07T05:06:54;101606.56;;;7.03;100.00
47054;BME280;32811;52.382;5.270;2023-04-07T05:09:21;101588.22;;;6.91;100.00
47054;BME280;32811;52.382;5.270;2023-04-07T05:11:47;101594.28;;;6.93;100.00
47054;BME280;32811;52.382;5.270;2023-04-07T05:14:14;101607.41;;;7.02;100.00
47054;BME280;32811;52.382;5.270;2023-04-07T05:16:41;101592.38;;;6.87;100.00
47054;BME280;32811;52.382;5.270;2023-04-07T05:19:07;101615.91;;;7.01;100.00
47054;BME280;32811;52.382;5.270;2023-04-07T05:21:34;101592.53;;;6.92;100.00
47054;BME280;32811;52.382;5.270;2023-04-07T05:24:01;101594.06;;;6.86;100.00
47054;BME280;32811;52.382;5.270;2023-04-07T05:26:27;101569.69;;;6.72;100.00
47054;BME280;32811;52.382;5.270;2023-04-07T05:28:54;101616.94;;;7.06;100.00
47054;BME280;32811;52.382;5.270;2023-04-07T05:31:21;101626.38;;;7.07;100.00
47054;BME280;32811;52.382;5.270;2023-04-07T05:33:48;101619.38;;;7.01;100.00
47054;BME280;32811;52.382;5.270;2023-04-07T05:36:15;101617.47;;;6.96;100.00
47054;BME280;32811;52.382;5.270;2023-04-07T05:38:42;101631.28;;;6.99;100.00
47054;BME280;32811;52.382;5.270;2023-04-07T05:41:08;101641.69;;;7.04;100.00
47054;BME280;32811;52.382;5.270;2023-04-07T05:43:35;101636.50;;;7.02;100.00
47054;BME280;32811;52.382;5.270;2023-04-07T05:46:02;101603.34;;;6.81;100.00
47054;BME280;32811;52.382;5.270;2023-04-07T05:48:28;101642.50;;;7.03;100.00
47054;BME280;32811;52.382;5.270;2023-04-07T05:50:55;101642.50;;;7.03;100.00
47054;BME280;32811;52.382;5.270;2023-04-07T05:53:22;101633.78;;;6.98;100.00
47054;BME280;32811;52.382;5.270;2023-04-07T05:55:49;101645.03;;;7.01;100.00
47054;BME280;32811;52.382;5.270;2023-04-07T05:58:15;101621.47;;;6.88;100.00
47054;BME280;32811;52.382;5.270;2023-04-07T06:00:42;101633.50;;;6.89;100.00
47054;BME280;32811;52.382;5.270;2023-04-07T06:03:08;101618.66;;;6.80;100.00
47054;BME280;32811;52.382;5.270;2023-04-07T06:05:35;101636.97;;;6.91;100.00
47054;BME280;32811;52.382;5.270;2023-04-07T06:08:02;101626.44;;;6.83;100.00
47054;BME280;32811;52.382;5.270;2023-04-07T06:10:28;101611.59;;;6.73;100.00
47054;BME280;32811;52.382;5.270;2023-04-07T06:12:55;101658.78;;;7.03;100.00
47054;BME280;32811;52.382;5.270;2023-04-07T06:15:22;101635.13;;;6.86;100.00
47054;BME280;32811;52.382;5.270;2023-04-07T06:17:49;101651.69;;;6.96;100.00
47054;BME280;32811;52.382;5.270;2023-04-07T06:20:15;101645.53;;;6.91;100.00
47054;BME280;32811;52.382;5.270;2023-04-07T06:22:42;101669.09;;;7.05;100.00
47054;BME280;32811;52.382;5.270;2023-04-07T06:25:09;101661.28;;;7.02;100.00
47054;BME280;32811;52.382;5.270;2023-04-07T06:27:35;101665.59;;;7.03;100.00
47054;BME280;32811;52.382;5.270;2023-04-07T06:30:02;101655.19;;;6.98;100.00
47054;BME280;32811;52.382;5.270;2023-04-07T06:32:29;101671.84;;;7.11;100.00
47054;BME280;32811;52.382;5.270;2023-04-07T06:34:56;101643.03;;;6.93;100.00
47054;BME280;32811;52.382;5.270;2023-04-07T06:37:23;101669.34;;;7.13;100.00
47054;BME280;32811;52.382;5.270;2023-04-07T06:39:50;101680.56;;;7.16;100.00
47054;BME280;32811;52.382;5.270;2023-04-07T06:42:17;101652.59;;;6.97;100.00
47054;BME280;32811;52.382;5.270;2023-04-07T06:44:43;101682.22;;;7.14;100.00
47054;BME280;32811;52.382;5.270;2023-04-07T06:47:10;101674.38;;;7.10;100.00
47054;BME280;32811;52.382;5.270;2023-04-07T06:49:37;101687.50;;;7.19;100.00
47054;BME280;32811;52.382;5.270;2023-04-07T06:52:04;101695.16;;;7.17;100.00
47054;BME280;32811;52.382;5.270;2023-04-07T06:54:31;101691.03;;;7.22;100.00
47054;BME280;32811;52.382;5.270;2023-04-07T06:56:58;101690.13;;;7.20;100.00
47054;BME280;32811;52.382;5.270;2023-04-07T06:59:24;101677.19;;;7.17;100.00
47054;BME280;32811;52.382;5.270;2023-04-07T07:01:51;101692.25;;;7.34;100.00
47054;BME280;32811;52.382;5.270;2023-04-07T07:04:18;101700.22;;;7.43;100.00
47054;BME280;32811;52.382;5.270;2023-04-07T07:06:45;101699.44;;;7.45;100.00
47054;BME280;32811;52.382;5.270;2023-04-07T07:09:11;101699.56;;;7.48;100.00
47054;BME280;32811;52.382;5.270;2023-04-07T07:11:38;101685.53;;;7.39;100.00
47054;BME280;32811;52.382;5.270;2023-04-07T07:14:05;101697.78;;;7.46;100.00
47054;BME280;32811;52.382;5.270;2023-04-07T07:16:32;101692.66;;;7.46;100.00
47054;BME280;32811;52.382;5.270;2023-04-07T07:18:58;101700.63;;;7.55;100.00
47054;BME280;32811;52.382;5.270;2023-04-07T07:21:25;101706.50;;;7.51;100.00
47054;BME280;32811;52.382;5.270;2023-04-07T07:23:52;101711.72;;;7.54;100.00
47054;BME280;32811;52.382;5.270;2023-04-07T07:26:18;101703.13;;;7.54;100.00
47054;BME280;32811;52.382;5.270;2023-04-07T07:28:45;101688.31;;;7.45;100.00
47054;BME280;32811;52.382;5.270;2023-04-07T07:31:12;101721.41;;;7.63;100.00
47054;BME280;32811;52.382;5.270;2023-04-07T07:33:41;101724.84;;;7.63;100.00
47054;BME280;32811;52.382;5.270;2023-04-07T07:36:09;101707.47;;;7.55;100.00
47054;BME280;32811;52.382;5.270;2023-04-07T07:38:36;101709.25;;;7.57;100.00
47054;BME280;32811;52.382;5.270;2023-04-07T07:41:03;101724.75;;;7.60;100.00
47054;BME280;32811;52.382;5.270;2023-04-07T07:43:29;101700.38;;;7.47;100.00
47054;BME280;32811;52.382;5.270;2023-04-07T07:45:56;101713.34;;;7.52;100.00
47054;BME280;32811;52.382;5.270;2023-04-07T07:48:23;101723.78;;;7.57;100.00
47054;BME280;32811;52.382;5.270;2023-04-07T07:50:50;101736.97;;;7.67;100.00
47054;BME280;32811;52.382;5.270;2023-04-07T07:53:17;101738.66;;;7.67;100.00
47054;BME280;32811;52.382;5.270;2023-04-07T07:55:45;101717.69;;;7.53;100.00
47054;BME280;32811;52.382;5.270;2023-04-07T07:58:12;101739.59;;;7.69;100.00
47054;BME280;32811;52.382;5.270;2023-04-07T08:00:39;101739.59;;;7.69;100.00
47054;BME280;32811;52.382;5.270;2023-04-07T08:03:06;101711.91;;;7.60;100.00
47054;BME280;32811;52.382;5.270;2023-04-07T08:05:32;101746.00;;;7.83;100.00
47054;BME280;32811;52.382;5.270;2023-04-07T08:07:59;101743.44;;;7.83;100.00
47054;BME280;32811;52.382;5.270;2023-04-07T08:10:25;101754.78;;;7.90;100.00
47054;BME280;32811;52.382;5.270;2023-04-07T08:12:52;101752.03;;;7.84;100.00
47054;BME280;32811;52.382;5.270;2023-04-07T08:15:19;101735.41;;;7.73;100.00
47054;BME280;32811;52.382;5.270;2023-04-07T08:17:46;101761.66;;;7.91;100.00
47054;BME280;32811;52.382;5.270;2023-04-07T08:20:12;101760.03;;;7.93;100.00
47054;BME280;32811;52.382;5.270;2023-04-07T08:22:39;101730.50;;;7.80;100.00
47054;BME280;32811;52.382;5.270;2023-04-07T08:25:06;101755.16;;;8.02;100.00
47054;BME280;32811;52.382;5.270;2023-04-07T08:27:33;101756.06;;;8.04;100.00
47054;BME280;32811;52.382;5.270;2023-04-07T08:30:02;101739.81;;;8.05;100.00
47054;BME280;32811;52.382;5.270;2023-04-07T08:32:43;101761.75;;;8.23;100.00
47054;BME280;32811;52.382;5.270;2023-04-07T08:35:10;101766.03;;;8.22;100.00
47054;BME280;32811;52.382;5.270;2023-04-07T08:37:38;101774.53;;;8.20;100.00
47054;BME280;32811;52.382;5.270;2023-04-07T08:40:05;101752.53;;;8.01;100.00
47054;BME280;32811;52.382;5.270;2023-04-07T08:42:34;101768.94;;;8.04;100.00
47054;BME280;32811;52.382;5.270;2023-04-07T08:45:05;101768.06;;;8.04;100.00
47054;BME280;32811;52.382;5.270;2023-04-07T08:47:34;101753.31;;;7.98;100.00
47054;BME280;32811;52.382;5.270;2023-04-07T08:50:03;101775.00;;;8.08;100.00
47054;BME280;32811;52.382;5.270;2023-04-07T08:52:46;101748.09;;;7.95;100.00
47054;BME280;32811;52.382;5.270;2023-04-07T08:55:15;101748.81;;;7.91;100.00
47054;BME280;32811;52.382;5.270;2023-04-07T08:57:42;101749.81;;;7.96;100.00
47054;BME280;32811;52.382;5.270;2023-04-07T09:00:09;101749.00;;;7.97;100.00
47054;BME280;32811;52.382;5.270;2023-04-07T09:02:41;101764.84;;;8.13;100.00
47054;BME280;32811;52.382;5.270;2023-04-07T09:05:13;101771.72;;;8.12;100.00
47054;BME280;32811;52.382;5.270;2023-04-07T09:07:40;101778.63;;;8.15;100.00
47054;BME280;32811;52.382;5.270;2023-04-07T09:10:08;101774.34;;;8.14;100.00
47054;BME280;32811;52.382;5.270;2023-04-07T09:12:36;101774.41;;;8.17;100.00
47054;BME280;32811;52.382;5.270;2023-04-07T09:15:05;101790.03;;;8.23;100.00
47054;BME280;32811;52.382;5.270;2023-04-07T09:17:32;101777.25;;;8.26;100.00
47054;BME280;32811;52.382;5.270;2023-04-07T09:19:59;101782.41;;;8.26;100.00
47054;BME280;32811;52.382;5.270;2023-04-07T09:22:39;101792.84;;;8.30;100.00
47054;BME280;32811;52.382;5.270;2023-04-07T09:25:15;101790.22;;;8.29;100.00
47054;BME280;32811;52.382;5.270;2023-04-07T09:30:25;101802.47;;;8.38;100.00
47054;BME280;32811;52.382;5.270;2023-04-07T09:32:52;101797.50;;;8.42;100.00
47054;BME280;32811;52.382;5.270;2023-04-07T09:35:19;101798.44;;;8.46;100.00
47054;BME280;32811;52.382;5.270;2023-04-07T09:38:08;101797.94;;;8.59;100.00
47054;BME280;32811;52.382;5.270;2023-04-07T09:40:35;101798.31;;;8.71;100.00
47054;BME280;32811;52.382;5.270;2023-04-07T09:43:04;101793.09;;;8.70;100.00
47054;BME280;32811;52.382;5.270;2023-04-07T09:45:31;101781.69;;;8.60;100.00
47054;BME280;32811;52.382;5.270;2023-04-07T09:48:06;101790.34;;;8.62;100.00
47054;BME280;32811;52.382;5.270;2023-04-07T09:50:38;101787.63;;;8.58;100.00
47054;BME280;32811;52.382;5.270;2023-04-07T09:53:05;101771.84;;;8.45;100.00
47054;BME280;32811;52.382;5.270;2023-04-07T09:55:32;101768.97;;;8.36;100.00
47054;BME280;32811;52.382;5.270;2023-04-07T09:58:00;101768.84;;;8.31;100.00
47054;BME280;32811;52.382;5.270;2023-04-07T10:00:27;101803.75;;;8.52;100.00
47054;BME280;32811;52.382;5.270;2023-04-07T10:02:56;101797.81;;;8.53;100.00
47054;BME280;32811;52.382;5.270;2023-04-07T10:05:24;101805.53;;;8.55;100.00
47054;BME280;32811;52.382;5.270;2023-04-07T10:07:51;101801.06;;;8.47;100.00
47054;BME280;32811;52.382;5.270;2023-04-07T10:10:18;101772.28;;;8.32;100.00
47054;BME280;32811;52.382;5.270;2023-04-07T10:12:45;101799.41;;;8.49;100.00
47054;BME280;32811;52.382;5.270;2023-04-07T10:15:13;101786.47;;;8.46;100.00
47054;BME280;32811;52.382;5.270;2023-04-07T10:17:46;101808.22;;;8.58;100.00
47054;BME280;32811;52.382;5.270;2023-04-07T10:20:18;101780.25;;;8.40;100.00
47054;BME280;32811;52.382;5.270;2023-04-07T10:22:50;101775.03;;;8.38;100.00
47054;BME280;32811;52.382;5.270;2023-04-07T10:25:21;101810.66;;;8.53;100.00
47054;BME280;32811;52.382;5.270;2023-04-07T10:27:55;101802.50;;;8.39;100.00
47054;BME280;32811;52.382;5.270;2023-04-07T10:30:30;101816.41;;;8.44;100.00
47054;BME280;32811;52.382;5.270;2023-04-07T10:32:57;101819.81;;;8.43;100.00
47054;BME280;32811;52.382;5.270;2023-04-07T10:35:24;101801.97;;;8.21;100.00
47054;BME280;32811;52.382;5.270;2023-04-07T10:40:34;101826.22;;;8.29;100.00
47054;BME280;32811;52.382;5.270;2023-04-07T10:43:02;101815.66;;;8.20;100.00
47054;BME280;32811;52.382;5.270;2023-04-07T10:48:12;101827.88;;;8.27;100.00
47054;BME280;32811;52.382;5.270;2023-04-07T10:50:39;101831.81;;;8.43;100.00
47054;BME280;32811;52.382;5.270;2023-04-07T10:53:06;101839.72;;;8.49;100.00
47054;BME280;32811;52.382;5.270;2023-04-07T11:03:27;101845.75;;;9.13;100.00
47054;BME280;32811;52.382;5.270;2023-04-07T11:06:05;101845.63;;;9.42;100.00
47054;BME280;32811;52.382;5.270;2023-04-07T11:08:43;101837.31;;;9.52;100.00
47054;BME280;32811;52.382;5.270;2023-04-07T11:11:16;101842.47;;;9.52;100.00
47054;BME280;32811;52.382;5.270;2023-04-07T11:13:49;101843.94;;;9.42;100.00
47054;BME280;32811;52.382;5.270;2023-04-07T11:16:18;101831.50;;;9.26;100.00
47054;BME280;32811;52.382;5.270;2023-04-07T11:18:46;101829.66;;;9.22;100.00
47054;BME280;32811;52.382;5.270;2023-04-07T11:21:17;101827.69;;;9.11;100.00
47054;BME280;32811;52.382;5.270;2023-04-07T11:23:45;101853.88;;;9.27;100.00
47054;BME280;32811;52.382;5.270;2023-04-07T11:26:13;101850.50;;;9.31;100.00
47054;BME280;32811;52.382;5.270;2023-04-07T11:28:47;101849.53;;;9.26;100.00
47054;BME280;32811;52.382;5.270;2023-04-07T11:31:22;101844.38;;;9.26;100.00
47054;BME280;32811;52.382;5.270;2023-04-07T11:33:56;101851.22;;;9.25;100.00
47054;BME280;32811;52.382;5.270;2023-04-07T11:36:36;101847.34;;;9.08;100.00
47054;BME280;32811;52.382;5.270;2023-04-07T11:39:03;101848.00;;;9.01;100.00
47054;BME280;32811;52.382;5.270;2023-04-07T11:41:32;101829.63;;;8.88;100.00
47054;BME280;32811;52.382;5.270;2023-04-07T11:44:12;101836.44;;;8.85;100.00
47054;BME280;32811;52.382;5.270;2023-04-07T11:46:59;101816.31;;;8.71;100.00
47054;BME280;32811;52.382;5.270;2023-04-07T11:49:27;101858.13;;;8.93;100.00
47054;BME280;32811;52.382;5.270;2023-04-07T11:52:00;101871.19;;;9.01;100.00
47054;BME280;32811;52.382;5.270;2023-04-07T11:57:07;101828.22;;;8.68;100.00
47054;BME280;32811;52.382;5.270;2023-04-07T11:59:39;101836.66;;;8.62;100.00
47054;BME280;32811;52.382;5.270;2023-04-07T12:02:06;101842.53;;;8.58;100.00
47054;BME280;32811;52.382;5.270;2023-04-07T12:04:33;101877.38;;;8.77;100.00
47054;BME280;32811;52.382;5.270;2023-04-07T12:07:10;101877.66;;;8.86;100.00
47054;BME280;32811;52.382;5.270;2023-04-07T12:09:37;101877.56;;;8.83;100.00
47054;BME280;32811;52.382;5.270;2023-04-07T12:12:05;101848.75;;;8.65;100.00
47054;BME280;32811;52.382;5.270;2023-04-07T12:14:34;101856.47;;;8.65;100.00
47054;BME280;32811;52.382;5.270;2023-04-07T12:17:01;101873.81;;;8.72;100.00
47054;BME280;32811;52.382;5.270;2023-04-07T12:19:30;101890.19;;;8.74;100.00
47054;BME280;32811;52.382;5.270;2023-04-07T12:22:02;101869.41;;;8.68;100.00
47054;BME280;32811;52.382;5.270;2023-04-07T12:24:29;101846.72;;;8.55;100.00
47054;BME280;32811;52.382;5.270;2023-04-07T12:26:58;101844.25;;;8.58;100.00
47054;BME280;32811;52.382;5.270;2023-04-07T12:29:25;101874.56;;;8.68;100.00
47054;BME280;32811;52.382;5.270;2023-04-07T12:31:51;101878.03;;;8.70;100.00
47054;BME280;32811;52.382;5.270;2023-04-07T12:34:18;101871.72;;;8.59;100.00
47054;BME280;32811;52.382;5.270;2023-04-07T12:36:45;101906.50;;;8.75;100.00
47054;BME280;32811;52.382;5.270;2023-04-07T12:39:11;101910.69;;;8.71;100.00
47054;BME280;32811;52.382;5.270;2023-04-07T12:41:38;101871.44;;;8.49;100.00
47054;BME280;32811;52.382;5.270;2023-04-07T12:44:05;101895.88;;;8.64;100.00
47054;BME280;32811;52.382;5.270;2023-04-07T12:46:32;101887.75;;;8.50;100.00
47054;BME280;32811;52.382;5.270;2023-04-07T12:48:59;101921.72;;;8.67;100.00
47054;BME280;32811;52.382;5.270;2023-04-07T12:51:26;101887.66;;;8.47;100.00
47054;BME280;32811;52.382;5.270;2023-04-07T12:53:53;101872.81;;;8.38;100.00
47054;BME280;32811;52.382;5.270;2023-04-07T12:56:20;101890.31;;;8.50;100.00
47054;BME280;32811;52.382;5.270;2023-04-07T12:58:50;101868.31;;;8.31;100.00
47054;BME280;32811;52.382;5.270;2023-04-07T13:01:16;101876.88;;;8.31;100.00
47054;BME280;32811;52.382;5.270;2023-04-07T13:03:43;101924.94;;;8.60;100.00
47054;BME280;32811;52.382;5.270;2023-04-07T13:06:10;101920.56;;;8.57;100.00
47054;BME280;32811;52.382;5.270;2023-04-07T13:08:38;101896.13;;;8.43;100.00
47054;BME280;32811;52.382;5.270;2023-04-07T13:11:05;101928.53;;;8.65;100.00
47054;BME280;32811;52.382;5.270;2023-04-07T13:13:31;101924.09;;;8.61;100.00
47054;BME280;32811;52.382;5.270;2023-04-07T13:15:58;101932.94;;;8.69;100.00
47054;BME280;32811;52.382;5.270;2023-04-07T13:18:28;101924.84;;;8.57;100.00
47054;BME280;32811;52.382;5.270;2023-04-07T13:20:55;101907.28;;;8.43;100.00
47054;BME280;32811;52.382;5.270;2023-04-07T13:23:41;101916.03;;;8.48;100.00